Impacts TAF Board INFO
FOR SITUATIONAL AWARENESS. NOT TO BE USED FOR FLIGHT PLANNING PURPOSES.
IDs:

KORD - Chicago/O'Hare Intl, IL, US

Issued at 0520 UTC 12 Dec 2017
Updated at 0810 UTC 12 Dec 2017
Potential Impact None Slight Moderate High
Time0751Z 12/09Z 12/10Z 12/11Z 12/12Z 12/13Z 12/14Z 12/15Z 12/16Z 12/17Z 12/18Z 12/19Z 12/20Z 12/21Z>>
Type OBS PRVL PRVL PRVL PRVL PRVL PRVL PRVL PRVL PRVL PRVL PRVL PRVL PRVL
VIS 10 >6 >6 >6 >6 >6 >6 >6 >6 >6 >6 >6 >6 >6
CIG 42 35 35 -- -- -- -- -- -- -- -- -- -- --
Cover BKN OVC OVC SCT SCT SCT SCT SCT SCT SCT SCT SCT SCT SCT
FltCat VFR VFR VFR VFR VFR VFR VFR VFR VFR VFR VFR VFR VFR VFR
WX -- -- -- -- -- -- -- -- -- -- -- -- -- --
WDir 350 330 330 330 330 330 330 330 330 330 330 330 330 330
WSpd 19 18 18 15 15 15 15 15 15 15 15 15 15 15
WGst 29 30 30 22 22 22 22 22 22 22 22 22 22 22

Raw TAF
KORD 120520Z 1206/1312 33018G30KT P6SM FEW025 OVC035
  TEMPO 1206/1209 -SHSN
  FM121100 33015G22KT P6SM SCT035 SCT200
  FM122300 30009KT P6SM BKN100
  FM130700 20006KT P6SM BKN045 OVC060


Raw METAR
KORD 120751Z 35019G29KT 10SM BKN042 M04/M12 A2998 RMK AO2 PK WND 34032/0712 SNE49 SLP158 P0000 T10391122 $
KORD 120651Z 34018G29KT 10SM -SN FEW028 OVC044 M02/M09 A2994 RMK AO2 PK WND 34031/0634 SLP143 SNB24 P0001 T10221094 $
KORD 120551Z 32017G25KT 10SM OVC034 M01/M07 A2990 RMK AO2 SLP130 4/001 60001 T10061067 10006 21006 400391050 51024

METAR Board
Radar Display
Forecast Discussion

FOR SITUATIONAL AWARENESS. NOT TO BE USED FOR FLIGHT PLANNING PURPOSES.